KOBE

Okeechobee County Airport

Okeechobee, Florida, USA
METAR KOBE 201735Z AUTO 00000KT CLR 30/21 A3002 RMK AO2 PWINO
Observed Flight Rules
Oct-20 @ 17:35 UTC (26 minutes ago)
Clouds
  • Clear skies
Temperatures Readings
Current 30°C / 86°F
Dewpoint 21°C / 70°F
Humidity 59%
Altimeter 30.02" Hg
Pressure 1017 hPa
Elevation 11
METAR KOBE 201735Z AUTO 00000KT CLR 30/21 A3002 RMK AO2 PWINO
Observed Flight Rules
Oct-20 @ 17:35 UTC
(26 minutes ago)
Clouds
  • Clear skies
Temperature Dewpoint
30°C / 86°F 21°C / 70°F
Humidity Altimeter Pressure
59% 30.02" Hg 1017 hPa